sensor_id;sensor_type;location;lat;lon;timestamp;pressure;altitude;pressure_sealevel;temperature;humidity
38022;BME280;23832;43.216;27.946;2023-03-16T00:01:44;99826.09;;;13.24;100.00
38022;BME280;23832;43.216;27.946;2023-03-16T00:03:47;99830.38;;;13.25;100.00
38022;BME280;23832;43.216;27.946;2023-03-16T00:05:51;99831.38;;;13.17;100.00
38022;BME280;23832;43.216;27.946;2023-03-16T00:07:53;99834.31;;;12.89;100.00
38022;BME280;23832;43.216;27.946;2023-03-16T00:09:55;99829.59;;;13.04;100.00
38022;BME280;23832;43.216;27.946;2023-03-16T00:11:57;99821.47;;;12.99;100.00
38022;BME280;23832;43.216;27.946;2023-03-16T00:13:59;99834.91;;;13.04;100.00
38022;BME280;23832;43.216;27.946;2023-03-16T00:16:03;99825.09;;;13.25;100.00
38022;BME280;23832;43.216;27.946;2023-03-16T00:18:06;99829.34;;;13.26;100.00
38022;BME280;23832;43.216;27.946;2023-03-16T00:20:17;99834.44;;;13.21;100.00
38022;BME280;23832;43.216;27.946;2023-03-16T00:22:20;99832.63;;;13.08;100.00
38022;BME280;23832;43.216;27.946;2023-03-16T00:24:22;99835.50;;;13.06;100.00
38022;BME280;23832;43.216;27.946;2023-03-16T00:26:24;99834.44;;;13.21;100.00
38022;BME280;23832;43.216;27.946;2023-03-16T00:28:27;99835.88;;;13.23;100.00
38022;BME280;23832;43.216;27.946;2023-03-16T00:30:29;99831.97;;;13.32;100.00
38022;BME280;23832;43.216;27.946;2023-03-16T00:32:34;99824.19;;;13.38;100.00
38022;BME280;23832;43.216;27.946;2023-03-16T00:34:37;99825.00;;;13.38;100.00
38022;BME280;23832;43.216;27.946;2023-03-16T00:36:40;99831.53;;;13.42;100.00
38022;BME280;23832;43.216;27.946;2023-03-16T00:38:43;99831.09;;;13.45;100.00
38022;BME280;23832;43.216;27.946;2023-03-16T00:40:46;99832.91;;;13.51;100.00
38022;BME280;23832;43.216;27.946;2023-03-16T00:42:50;99835.38;;;13.46;100.00
38022;BME280;23832;43.216;27.946;2023-03-16T00:44:55;99831.97;;;13.39;100.00
38022;BME280;23832;43.216;27.946;2023-03-16T00:46:57;99828.53;;;13.32;100.00
38022;BME280;23832;43.216;27.946;2023-03-16T00:49:01;99830.31;;;13.38;100.00
38022;BME280;23832;43.216;27.946;2023-03-16T00:51:05;99823.34;;;13.50;100.00
38022;BME280;23832;43.216;27.946;2023-03-16T00:53:08;99824.53;;;13.54;100.00
38022;BME280;23832;43.216;27.946;2023-03-16T00:55:10;99815.53;;;13.62;100.00
38022;BME280;23832;43.216;27.946;2023-03-16T00:57:14;99823.47;;;13.62;100.00
38022;BME280;23832;43.216;27.946;2023-03-16T00:59:18;99826.59;;;13.52;100.00
38022;BME280;23832;43.216;27.946;2023-03-16T01:01:21;99832.22;;;13.69;100.00
38022;BME280;23832;43.216;27.946;2023-03-16T01:03:23;99824.88;;;13.64;100.00
38022;BME280;23832;43.216;27.946;2023-03-16T01:05:25;99826.09;;;13.69;100.00
38022;BME280;23832;43.216;27.946;2023-03-16T01:07:28;99827.34;;;13.66;100.00
38022;BME280;23832;43.216;27.946;2023-03-16T01:09:32;99824.75;;;13.53;100.00
38022;BME280;23832;43.216;27.946;2023-03-16T01:11:36;99822.19;;;13.78;100.00
38022;BME280;23832;43.216;27.946;2023-03-16T01:13:39;99822.41;;;13.76;100.00
38022;BME280;23832;43.216;27.946;2023-03-16T01:15:41;99826.50;;;13.66;100.00
38022;BME280;23832;43.216;27.946;2023-03-16T01:17:45;99828.91;;;13.74;100.00
38022;BME280;23832;43.216;27.946;2023-03-16T01:19:47;99834.84;;;13.69;100.00
38022;BME280;23832;43.216;27.946;2023-03-16T01:21:50;99823.03;;;13.72;100.00
38022;BME280;23832;43.216;27.946;2023-03-16T01:23:53;99805.84;;;13.49;100.00
38022;BME280;23832;43.216;27.946;2023-03-16T01:25:56;99833.03;;;13.70;100.00
38022;BME280;23832;43.216;27.946;2023-03-16T01:27:58;99826.50;;;13.66;100.00
38022;BME280;23832;43.216;27.946;2023-03-16T01:30:01;99835.59;;;13.45;100.00
38022;BME280;23832;43.216;27.946;2023-03-16T01:32:04;99835.59;;;13.45;100.00
38022;BME280;23832;43.216;27.946;2023-03-16T01:34:06;99834.75;;;13.51;100.00
38022;BME280;23832;43.216;27.946;2023-03-16T01:36:10;99837.97;;;13.59;100.00
38022;BME280;23832;43.216;27.946;2023-03-16T01:38:13;99844.69;;;13.55;100.00
38022;BME280;23832;43.216;27.946;2023-03-16T01:40:15;99847.41;;;13.49;100.00
38022;BME280;23832;43.216;27.946;2023-03-16T01:42:18;99844.84;;;13.16;100.00
38022;BME280;23832;43.216;27.946;2023-03-16T01:44:24;99855.66;;;13.07;100.00
38022;BME280;23832;43.216;27.946;2023-03-16T01:46:29;99858.69;;;13.24;100.00
38022;BME280;23832;43.216;27.946;2023-03-16T01:48:34;99859.31;;;13.64;100.00
38022;BME280;23832;43.216;27.946;2023-03-16T01:50:38;99858.97;;;13.48;100.00
38022;BME280;23832;43.216;27.946;2023-03-16T01:52:41;99862.03;;;13.51;100.00
38022;BME280;23832;43.216;27.946;2023-03-16T01:54:45;99859.81;;;13.48;100.00
38022;BME280;23832;43.216;27.946;2023-03-16T01:56:51;99858.09;;;13.67;100.00
38022;BME280;23832;43.216;27.946;2023-03-16T01:58:58;99865.41;;;13.72;100.00
38022;BME280;23832;43.216;27.946;2023-03-16T02:01:02;99861.94;;;13.71;100.00
38022;BME280;23832;43.216;27.946;2023-03-16T02:03:08;99869.75;;;13.59;100.00
38022;BME280;23832;43.216;27.946;2023-03-16T02:05:15;99862.75;;;13.72;100.00
38022;BME280;23832;43.216;27.946;2023-03-16T02:07:24;99861.50;;;13.74;100.00
38022;BME280;23832;43.216;27.946;2023-03-16T02:09:27;99873.19;;;13.67;100.00
38022;BME280;23832;43.216;27.946;2023-03-16T02:11:30;99869.66;;;13.73;100.00
38022;BME280;23832;43.216;27.946;2023-03-16T02:13:33;99878.66;;;13.72;100.00
38022;BME280;23832;43.216;27.946;2023-03-16T02:15:37;99863.97;;;13.76;100.00
38022;BME280;23832;43.216;27.946;2023-03-16T02:17:42;99873.44;;;13.58;100.00
38022;BME280;23832;43.216;27.946;2023-03-16T02:19:52;99870.34;;;13.61;100.00
38022;BME280;23832;43.216;27.946;2023-03-16T02:22:01;99858.47;;;13.71;100.00
38022;BME280;23832;43.216;27.946;2023-03-16T02:24:03;99869.50;;;13.68;100.00
38022;BME280;23832;43.216;27.946;2023-03-16T02:26:10;99865.59;;;13.77;100.00
38022;BME280;23832;43.216;27.946;2023-03-16T02:28:21;99871.66;;;13.84;100.00
38022;BME280;23832;43.216;27.946;2023-03-16T02:30:27;99869.28;;;13.69;100.00
38022;BME280;23832;43.216;27.946;2023-03-16T02:32:30;99885.81;;;13.64;100.00
38022;BME280;23832;43.216;27.946;2023-03-16T02:34:34;99888.31;;;13.53;100.00
38022;BME280;23832;43.216;27.946;2023-03-16T02:36:38;99886.91;;;13.50;100.00
38022;BME280;23832;43.216;27.946;2023-03-16T02:38:41;99893.03;;;13.44;100.00
38022;BME280;23832;43.216;27.946;2023-03-16T02:40:45;99893.81;;;13.51;100.00
38022;BME280;23832;43.216;27.946;2023-03-16T02:42:59;99886.03;;;13.56;100.00
38022;BME280;23832;43.216;27.946;2023-03-16T02:45:04;99890.50;;;13.62;100.00
38022;BME280;23832;43.216;27.946;2023-03-16T02:47:10;99883.97;;;13.65;100.00
38022;BME280;23832;43.216;27.946;2023-03-16T02:49:16;99889.25;;;13.72;100.00
38022;BME280;23832;43.216;27.946;2023-03-16T02:51:20;99884.16;;;13.70;100.00
38022;BME280;23832;43.216;27.946;2023-03-16T02:53:23;99887.19;;;13.74;100.00
38022;BME280;23832;43.216;27.946;2023-03-16T02:55:25;99886.78;;;13.77;100.00
38022;BME280;23832;43.216;27.946;2023-03-16T02:57:27;99890.25;;;13.71;100.00
38022;BME280;23832;43.216;27.946;2023-03-16T02:59:29;99888.50;;;13.58;100.00
38022;BME280;23832;43.216;27.946;2023-03-16T03:01:32;99899.72;;;13.47;100.00
38022;BME280;23832;43.216;27.946;2023-03-16T03:03:37;99889.72;;;13.55;100.00
38022;BME280;23832;43.216;27.946;2023-03-16T03:05:39;99893.81;;;13.51;100.00
38022;BME280;23832;43.216;27.946;2023-03-16T03:07:42;99924.63;;;13.39;100.00
38022;BME280;23832;43.216;27.946;2023-03-16T03:09:45;99905.66;;;13.42;100.00
38022;BME280;23832;43.216;27.946;2023-03-16T03:11:46;99901.63;;;13.33;100.00
38022;BME280;23832;43.216;27.946;2023-03-16T03:13:50;99914.66;;;13.28;100.00
38022;BME280;23832;43.216;27.946;2023-03-16T03:15:52;99916.03;;;13.44;100.00
38022;BME280;23832;43.216;27.946;2023-03-16T03:17:54;99914.09;;;13.71;100.00
38022;BME280;23832;43.216;27.946;2023-03-16T03:19:58;99911.72;;;13.56;100.00
38022;BME280;23832;43.216;27.946;2023-03-16T03:22:02;99917.06;;;13.36;100.00
38022;BME280;23832;43.216;27.946;2023-03-16T03:24:06;99924.78;;;13.51;100.00
38022;BME280;23832;43.216;27.946;2023-03-16T03:26:08;99926.78;;;13.55;100.00
38022;BME280;23832;43.216;27.946;2023-03-16T03:28:10;99927.22;;;13.52;100.00
38022;BME280;23832;43.216;27.946;2023-03-16T03:30:18;99922.69;;;13.66;100.00
38022;BME280;23832;43.216;27.946;2023-03-16T03:32:20;99924.13;;;13.55;100.00
38022;BME280;23832;43.216;27.946;2023-03-16T03:34:22;99931.47;;;13.67;100.00
38022;BME280;23832;43.216;27.946;2023-03-16T03:36:27;99930.44;;;13.61;100.00
38022;BME280;23832;43.216;27.946;2023-03-16T03:38:30;99935.69;;;13.74;100.00
38022;BME280;23832;43.216;27.946;2023-03-16T03:40:31;99931.25;;;13.61;100.00
38022;BME280;23832;43.216;27.946;2023-03-16T03:42:33;99931.53;;;13.40;100.00
38022;BME280;23832;43.216;27.946;2023-03-16T03:44:35;99934.63;;;13.24;100.00
38022;BME280;23832;43.216;27.946;2023-03-16T03:46:37;99945.59;;;13.27;100.00
38022;BME280;23832;43.216;27.946;2023-03-16T03:48:39;99943.56;;;13.36;100.00
38022;BME280;23832;43.216;27.946;2023-03-16T03:50:41;99947.63;;;13.39;100.00
38022;BME280;23832;43.216;27.946;2023-03-16T03:52:44;99949.63;;;13.50;100.00
38022;BME280;23832;43.216;27.946;2023-03-16T03:54:46;99952.88;;;13.52;100.00
38022;BME280;23832;43.216;27.946;2023-03-16T03:56:48;99952.44;;;13.61;100.00
38022;BME280;23832;43.216;27.946;2023-03-16T03:58:51;99955.91;;;13.69;100.00
38022;BME280;23832;43.216;27.946;2023-03-16T04:00:53;99963.41;;;13.78;100.00
38022;BME280;23832;43.216;27.946;2023-03-16T04:02:55;99961.78;;;13.71;100.00
38022;BME280;23832;43.216;27.946;2023-03-16T04:04:57;99969.13;;;13.69;100.00
38022;BME280;23832;43.216;27.946;2023-03-16T04:07:00;99965.88;;;13.67;100.00
38022;BME280;23832;43.216;27.946;2023-03-16T04:09:03;99966.66;;;13.74;100.00
38022;BME280;23832;43.216;27.946;2023-03-16T04:11:05;99961.78;;;13.77;100.00
38022;BME280;23832;43.216;27.946;2023-03-16T04:13:07;99967.66;;;13.86;100.00
38022;BME280;23832;43.216;27.946;2023-03-16T04:15:10;99971.69;;;13.95;100.00
38022;BME280;23832;43.216;27.946;2023-03-16T04:17:13;99973.53;;;13.95;100.00
38022;BME280;23832;43.216;27.946;2023-03-16T04:19:16;99974.13;;;13.90;100.00
38022;BME280;23832;43.216;27.946;2023-03-16T04:21:20;99978.19;;;13.92;100.00
38022;BME280;23832;43.216;27.946;2023-03-16T04:23:22;99981.50;;;13.88;100.00
38022;BME280;23832;43.216;27.946;2023-03-16T04:25:27;99983.13;;;13.89;100.00
38022;BME280;23832;43.216;27.946;2023-03-16T04:27:30;99990.22;;;13.95;100.00
38022;BME280;23832;43.216;27.946;2023-03-16T04:29:35;99987.81;;;13.94;100.00
38022;BME280;23832;43.216;27.946;2023-03-16T04:31:38;99993.13;;;13.87;100.00
38022;BME280;23832;43.216;27.946;2023-03-16T04:33:41;100000.03;;;13.88;100.00
38022;BME280;23832;43.216;27.946;2023-03-16T04:35:43;100001.44;;;13.97;100.00
38022;BME280;23832;43.216;27.946;2023-03-16T04:37:46;99998.19;;;13.95;100.00
38022;BME280;23832;43.216;27.946;2023-03-16T04:39:48;100009.09;;;13.67;100.00
38022;BME280;23832;43.216;27.946;2023-03-16T04:41:52;100000.47;;;13.85;100.00
38022;BME280;23832;43.216;27.946;2023-03-16T04:43:53;100007.78;;;13.89;100.00
38022;BME280;23832;43.216;27.946;2023-03-16T04:45:57;100004.94;;;13.84;100.00
38022;BME280;23832;43.216;27.946;2023-03-16T04:47:58;100015.50;;;13.98;100.00
38022;BME280;23832;43.216;27.946;2023-03-16T04:50:01;100018.38;;;13.83;100.00
38022;BME280;23832;43.216;27.946;2023-03-16T04:52:03;100019.03;;;13.78;100.00
38022;BME280;23832;43.216;27.946;2023-03-16T04:54:06;100020.44;;;13.81;100.00
38022;BME280;23832;43.216;27.946;2023-03-16T04:56:08;100024.13;;;13.80;100.00
38022;BME280;23832;43.216;27.946;2023-03-16T04:58:18;100011.69;;;13.74;100.00
38022;BME280;23832;43.216;27.946;2023-03-16T05:00:22;100027.41;;;13.75;100.00
38022;BME280;23832;43.216;27.946;2023-03-16T05:02:24;100028.38;;;13.81;100.00
38022;BME280;23832;43.216;27.946;2023-03-16T05:04:26;100026.97;;;13.85;100.00
38022;BME280;23832;43.216;27.946;2023-03-16T05:06:29;100027.13;;;13.90;100.00
38022;BME280;23832;43.216;27.946;2023-03-16T05:08:31;100029.38;;;13.93;100.00
38022;BME280;23832;43.216;27.946;2023-03-16T05:10:33;100026.16;;;13.84;100.00
38022;BME280;23832;43.216;27.946;2023-03-16T05:12:35;100037.78;;;13.70;100.00
38022;BME280;23832;43.216;27.946;2023-03-16T05:14:39;100037.56;;;13.78;100.00
38022;BME280;23832;43.216;27.946;2023-03-16T05:16:41;100037.19;;;13.68;100.00
38022;BME280;23832;43.216;27.946;2023-03-16T05:18:43;100043.69;;;13.72;100.00
38022;BME280;23832;43.216;27.946;2023-03-16T05:20:48;100043.28;;;13.75;100.00
38022;BME280;23832;43.216;27.946;2023-03-16T05:22:51;100029.03;;;13.70;100.00
38022;BME280;23832;43.216;27.946;2023-03-16T05:24:53;100049.75;;;13.92;100.00
38022;BME280;23832;43.216;27.946;2023-03-16T05:26:55;100046.88;;;14.01;100.00
38022;BME280;23832;43.216;27.946;2023-03-16T05:28:57;100045.03;;;14.01;100.00
38022;BME280;23832;43.216;27.946;2023-03-16T05:31:00;100060.97;;;13.95;100.00
38022;BME280;23832;43.216;27.946;2023-03-16T05:33:03;100054.19;;;14.05;100.00
38022;BME280;23832;43.216;27.946;2023-03-16T05:35:06;100037.88;;;14.02;100.00
38022;BME280;23832;43.216;27.946;2023-03-16T05:37:08;100045.66;;;14.03;100.00
38022;BME280;23832;43.216;27.946;2023-03-16T05:39:10;100057.09;;;13.97;100.00
38022;BME280;23832;43.216;27.946;2023-03-16T05:41:12;100046.09;;;13.94;100.00
38022;BME280;23832;43.216;27.946;2023-03-16T05:43:15;100052.78;;;14.03;100.00
38022;BME280;23832;43.216;27.946;2023-03-16T05:45:17;100049.94;;;14.04;100.00
38022;BME280;23832;43.216;27.946;2023-03-16T05:47:20;100050.09;;;14.09;100.00
38022;BME280;23832;43.216;27.946;2023-03-16T05:49:22;100057.09;;;13.97;100.00
38022;BME280;23832;43.216;27.946;2023-03-16T05:51:25;100060.56;;;13.91;100.00
38022;BME280;23832;43.216;27.946;2023-03-16T05:53:27;100058.91;;;14.03;100.00
38022;BME280;23832;43.216;27.946;2023-03-16T05:55:29;100066.22;;;14.08;100.00
38022;BME280;23832;43.216;27.946;2023-03-16T05:57:31;100063.78;;;14.06;100.00
38022;BME280;23832;43.216;27.946;2023-03-16T05:59:33;100067.63;;;14.10;100.00
38022;BME280;23832;43.216;27.946;2023-03-16T06:01:35;100068.03;;;14.20;100.00
38022;BME280;23832;43.216;27.946;2023-03-16T06:03:41;100067.22;;;14.13;100.00
38022;BME280;23832;43.216;27.946;2023-03-16T06:05:43;100073.38;;;14.01;100.00
38022;BME280;23832;43.216;27.946;2023-03-16T06:07:45;100076.81;;;14.08;100.00
38022;BME280;23832;43.216;27.946;2023-03-16T06:09:47;100067.59;;;14.24;100.00
38022;BME280;23832;43.216;27.946;2023-03-16T06:11:49;100072.09;;;14.16;100.00
38022;BME280;23832;43.216;27.946;2023-03-16T06:13:51;100074.97;;;14.15;100.00
38022;BME280;23832;43.216;27.946;2023-03-16T06:15:57;100076.13;;;14.26;100.00
38022;BME280;23832;43.216;27.946;2023-03-16T06:17:59;100075.91;;;14.34;100.00
38022;BME280;23832;43.216;27.946;2023-03-16T06:20:05;100081.41;;;14.39;100.00
38022;BME280;23832;43.216;27.946;2023-03-16T06:22:10;100077.75;;;14.33;100.00
38022;BME280;23832;43.216;27.946;2023-03-16T06:24:12;100089.75;;;14.36;100.00
38022;BME280;23832;43.216;27.946;2023-03-16T06:26:15;100101.00;;;14.38;100.00
38022;BME280;23832;43.216;27.946;2023-03-16T06:28:17;100090.78;;;14.35;100.00
38022;BME280;23832;43.216;27.946;2023-03-16T06:30:19;100100.19;;;14.31;100.00
38022;BME280;23832;43.216;27.946;2023-03-16T06:32:21;100101.19;;;14.36;100.00
38022;BME280;23832;43.216;27.946;2023-03-16T06:34:23;100100.78;;;14.33;100.00
38022;BME280;23832;43.216;27.946;2023-03-16T06:36:27;100104.19;;;14.53;100.00
38022;BME280;23832;43.216;27.946;2023-03-16T06:38:29;100110.81;;;14.24;100.00
38022;BME280;23832;43.216;27.946;2023-03-16T06:40:31;100112.00;;;14.28;100.00
38022;BME280;23832;43.216;27.946;2023-03-16T06:42:35;100112.44;;;14.25;100.00
38022;BME280;23832;43.216;27.946;2023-03-16T06:44:37;100121.81;;;14.28;100.00
38022;BME280;23832;43.216;27.946;2023-03-16T06:46:42;100121.34;;;14.51;100.00
38022;BME280;23832;43.216;27.946;2023-03-16T06:48:44;100125.44;;;14.46;100.00
38022;BME280;23832;43.216;27.946;2023-03-16T06:50:46;100126.28;;;14.34;100.00
38022;BME280;23832;43.216;27.946;2023-03-16T06:52:50;100136.75;;;14.15;100.00
38022;BME280;23832;43.216;27.946;2023-03-16T06:54:52;100138.59;;;14.15;100.00
38022;BME280;23832;43.216;27.946;2023-03-16T06:56:54;100143.72;;;13.97;100.00
38022;BME280;23832;43.216;27.946;2023-03-16T06:58:56;100144.53;;;13.97;100.00
38022;BME280;23832;43.216;27.946;2023-03-16T07:01:00;100135.13;;;14.01;100.00
38022;BME280;23832;43.216;27.946;2023-03-16T07:03:03;100144.09;;;14.00;100.00
38022;BME280;23832;43.216;27.946;2023-03-16T07:05:05;100147.19;;;13.97;100.00
38022;BME280;23832;43.216;27.946;2023-03-16T07:07:08;100160.69;;;13.76;100.00
38022;BME280;23832;43.216;27.946;2023-03-16T07:09:13;100159.22;;;13.73;100.00
38022;BME280;23832;43.216;27.946;2023-03-16T07:11:15;100155.56;;;13.54;100.00
38022;BME280;23832;43.216;27.946;2023-03-16T07:13:17;100159.44;;;13.65;100.00
38022;BME280;23832;43.216;27.946;2023-03-16T07:15:19;100156.59;;;13.33;100.00
38022;BME280;23832;43.216;27.946;2023-03-16T07:17:21;100172.69;;;13.58;100.00
38022;BME280;23832;43.216;27.946;2023-03-16T07:19:23;100171.88;;;13.64;100.00
38022;BME280;23832;43.216;27.946;2023-03-16T07:21:25;100173.72;;;13.71;100.00
38022;BME280;23832;43.216;27.946;2023-03-16T07:23:28;100165.16;;;13.62;100.00
38022;BME280;23832;43.216;27.946;2023-03-16T07:25:31;100174.94;;;13.68;100.00
38022;BME280;23832;43.216;27.946;2023-03-16T07:27:33;100172.69;;;13.52;100.00
38022;BME280;23832;43.216;27.946;2023-03-16T07:29:35;100180.22;;;13.48;100.00
38022;BME280;23832;43.216;27.946;2023-03-16T07:31:38;100179.19;;;13.23;100.00
38022;BME280;23832;43.216;27.946;2023-03-16T07:33:40;100182.66;;;13.30;100.00
38022;BME280;23832;43.216;27.946;2023-03-16T07:35:42;100183.47;;;13.44;100.00
38022;BME280;23832;43.216;27.946;2023-03-16T07:37:44;100183.47;;;13.63;100.00
38022;BME280;23832;43.216;27.946;2023-03-16T07:39:47;100185.13;;;13.78;100.00
38022;BME280;23832;43.216;27.946;2023-03-16T07:41:51;100180.03;;;13.63;100.00
38022;BME280;23832;43.216;27.946;2023-03-16T07:43:53;100185.31;;;13.43;100.00
38022;BME280;23832;43.216;27.946;2023-03-16T07:45:55;100190.94;;;13.14;100.00
38022;BME280;23832;43.216;27.946;2023-03-16T07:47:57;100186.47;;;13.14;100.00
38022;BME280;23832;43.216;27.946;2023-03-16T07:50:00;100179.34;;;13.15;100.00
38022;BME280;23832;43.216;27.946;2023-03-16T07:52:01;100204.38;;;13.19;100.00
38022;BME280;23832;43.216;27.946;2023-03-16T07:54:05;100206.81;;;13.14;100.00
38022;BME280;23832;43.216;27.946;2023-03-16T07:56:07;100208.41;;;13.08;100.00
38022;BME280;23832;43.216;27.946;2023-03-16T07:58:11;100212.88;;;12.94;100.00
38022;BME280;23832;43.216;27.946;2023-03-16T08:00:14;100212.75;;;12.68;100.00
38022;BME280;23832;43.216;27.946;2023-03-16T08:02:17;100216.09;;;12.48;100.00
38022;BME280;23832;43.216;27.946;2023-03-16T08:04:21;100214.59;;;12.74;100.00
38022;BME280;23832;43.216;27.946;2023-03-16T08:06:23;100220.91;;;12.73;100.00
38022;BME280;23832;43.216;27.946;2023-03-16T08:08:27;100227.22;;;12.72;100.00
38022;BME280;23832;43.216;27.946;2023-03-16T08:10:29;100229.84;;;12.72;100.00
38022;BME280;23832;43.216;27.946;2023-03-16T08:12:31;100224.78;;;12.70;100.00
38022;BME280;23832;43.216;27.946;2023-03-16T08:14:35;100237.34;;;12.62;100.00
38022;BME280;23832;43.216;27.946;2023-03-16T08:16:40;100235.97;;;12.38;100.00
38022;BME280;23832;43.216;27.946;2023-03-16T08:18:42;100238.69;;;12.16;100.00
38022;BME280;23832;43.216;27.946;2023-03-16T08:20:44;100242.88;;;12.32;100.00
38022;BME280;23832;43.216;27.946;2023-03-16T08:22:46;100229.88;;;12.37;100.00
38022;BME280;23832;43.216;27.946;2023-03-16T08:24:49;100250.78;;;12.32;100.00
38022;BME280;23832;43.216;27.946;2023-03-16T08:26:52;100244.41;;;12.20;100.00
38022;BME280;23832;43.216;27.946;2023-03-16T08:28:55;100247.59;;;12.43;100.00
38022;BME280;23832;43.216;27.946;2023-03-16T08:30:59;100241.81;;;12.61;100.00
38022;BME280;23832;43.216;27.946;2023-03-16T08:33:01;100248.00;;;12.40;100.00
38022;BME280;23832;43.216;27.946;2023-03-16T08:35:04;100249.84;;;12.46;100.00
38022;BME280;23832;43.216;27.946;2023-03-16T08:37:07;100257.78;;;12.46;100.00
38022;BME280;23832;43.216;27.946;2023-03-16T08:39:09;100256.56;;;12.42;100.00
38022;BME280;23832;43.216;27.946;2023-03-16T08:41:12;100257.41;;;12.49;100.00
38022;BME280;23832;43.216;27.946;2023-03-16T08:43:16;100258.91;;;12.59;100.00
38022;BME280;23832;43.216;27.946;2023-03-16T08:45:19;100247.97;;;12.75;100.00
38022;BME280;23832;43.216;27.946;2023-03-16T08:47:24;100257.84;;;12.94;100.00
38022;BME280;23832;43.216;27.946;2023-03-16T08:49:26;100252.72;;;12.86;100.00
38022;BME280;23832;43.216;27.946;2023-03-16T08:51:28;100259.03;;;12.92;100.00
38022;BME280;23832;43.216;27.946;2023-03-16T08:53:31;100262.50;;;12.92;100.00
38022;BME280;23832;43.216;27.946;2023-03-16T08:55:33;100259.03;;;12.85;100.00
38022;BME280;23832;43.216;27.946;2023-03-16T08:57:35;100243.16;;;12.92;100.00
38022;BME280;23832;43.216;27.946;2023-03-16T08:59:38;100254.84;;;13.11;100.00
38022;BME280;23832;43.216;27.946;2023-03-16T09:01:41;100265.25;;;13.12;100.00
38022;BME280;23832;43.216;27.946;2023-03-16T09:03:45;100239.75;;;12.98;100.00
38022;BME280;23832;43.216;27.946;2023-03-16T09:05:58;100265.88;;;13.21;100.00
38022;BME280;23832;43.216;27.946;2023-03-16T09:08:01;100262.81;;;13.17;100.00
38022;BME280;23832;43.216;27.946;2023-03-16T09:10:07;100269.00;;;13.31;100.00
38022;BME280;23832;43.216;27.946;2023-03-16T09:12:12;100274.53;;;13.01;100.00
38022;BME280;23832;43.216;27.946;2023-03-16T09:14:16;100275.81;;;13.05;100.00
38022;BME280;23832;43.216;27.946;2023-03-16T09:16:20;100266.22;;;13.11;100.00
38022;BME280;23832;43.216;27.946;2023-03-16T09:18:26;100266.91;;;13.20;100.00
38022;BME280;23832;43.216;27.946;2023-03-16T09:20:36;100257.19;;;13.33;100.00
38022;BME280;23832;43.216;27.946;2023-03-16T09:22:39;100263.53;;;13.46;100.00
38022;BME280;23832;43.216;27.946;2023-03-16T09:24:41;100274.00;;;13.13;100.00
38022;BME280;23832;43.216;27.946;2023-03-16T09:26:46;100277.13;;;13.23;100.00
38022;BME280;23832;43.216;27.946;2023-03-16T09:28:49;100278.31;;;13.20;100.00
38022;BME280;23832;43.216;27.946;2023-03-16T09:30:51;100289.38;;;13.37;100.00
38022;BME280;23832;43.216;27.946;2023-03-16T09:32:55;100289.56;;;13.35;100.00
38022;BME280;23832;43.216;27.946;2023-03-16T09:34:57;100287.00;;;13.62;100.00
38022;BME280;23832;43.216;27.946;2023-03-16T09:37:00;100291.25;;;13.50;100.00
38022;BME280;23832;43.216;27.946;2023-03-16T09:39:03;100292.91;;;13.10;100.00
38022;BME280;23832;43.216;27.946;2023-03-16T09:41:07;100297.59;;;13.07;100.00
38022;BME280;23832;43.216;27.946;2023-03-16T09:43:32;100301.16;;;13.28;100.00
38022;BME280;23832;43.216;27.946;2023-03-16T09:45:41;100303.66;;;13.43;100.00
38022;BME280;23832;43.216;27.946;2023-03-16T09:47:50;100307.25;;;13.28;100.00
38022;BME280;23832;43.216;27.946;2023-03-16T09:50:00;100315.47;;;13.40;100.00
38022;BME280;23832;43.216;27.946;2023-03-16T09:52:12;100302.94;;;13.21;100.00
38022;BME280;23832;43.216;27.946;2023-03-16T09:54:24;100327.72;;;13.06;100.00
38022;BME280;23832;43.216;27.946;2023-03-16T09:56:33;100320.19;;;13.03;100.00
38022;BME280;23832;43.216;27.946;2023-03-16T09:58:36;100317.38;;;13.18;100.00
38022;BME280;23832;43.216;27.946;2023-03-16T10:00:44;100331.00;;;13.15;100.00
38022;BME280;23832;43.216;27.946;2023-03-16T10:03:13;100324.97;;;12.87;100.00
38022;BME280;23832;43.216;27.946;2023-03-16T10:05:20;100335.03;;;13.04;100.00
38022;BME280;23832;43.216;27.946;2023-03-16T10:07:31;100328.03;;;13.25;100.00
38022;BME280;23832;43.216;27.946;2023-03-16T10:09:42;100331.72;;;13.37;100.00
38022;BME280;23832;43.216;27.946;2023-03-16T10:11:48;100326.59;;;13.22;100.00
38022;BME280;23832;43.216;27.946;2023-03-16T10:13:59;100328.28;;;13.37;100.00
38022;BME280;23832;43.216;27.946;2023-03-16T10:16:07;100332.16;;;13.47;100.00
38022;BME280;23832;43.216;27.946;2023-03-16T10:18:15;100324.88;;;13.62;100.00
38022;BME280;23832;43.216;27.946;2023-03-16T10:20:19;100329.50;;;13.34;100.00
38022;BME280;23832;43.216;27.946;2023-03-16T10:22:23;100338.69;;;13.45;100.00
38022;BME280;23832;43.216;27.946;2023-03-16T10:24:39;100338.38;;;13.20;100.00
38022;BME280;23832;43.216;27.946;2023-03-16T10:26:49;100339.47;;;13.32;100.00
38022;BME280;23832;43.216;27.946;2023-03-16T10:28:54;100340.97;;;13.54;100.00
38022;BME280;23832;43.216;27.946;2023-03-16T10:30:59;100338.31;;;13.54;100.00
38022;BME280;23832;43.216;27.946;2023-03-16T10:33:10;100336.28;;;13.63;100.00
38022;BME280;23832;43.216;27.946;2023-03-16T10:35:33;100337.50;;;13.54;100.00